createdAt,value
2018-09-20T00:00:45.578Z,39.70
2018-09-20T00:05:48.846Z,31.17
2018-09-20T00:10:52.131Z,36.93
2018-09-20T00:15:55.401Z,36.40
2018-09-20T00:20:58.674Z,34.60
2018-09-20T00:26:01.943Z,41.13
2018-09-20T00:31:05.261Z,50.53
2018-09-20T00:36:08.542Z,38.17
2018-09-20T00:41:11.818Z,28.07
2018-09-20T00:46:15.082Z,37.13
2018-09-20T00:51:18.331Z,39.03
2018-09-20T00:56:21.613Z,29.00
2018-09-20T01:01:25.045Z,40.97
2018-09-20T01:06:28.303Z,49.13
2018-09-20T01:11:31.599Z,48.80
2018-09-20T01:16:34.870Z,41.03
2018-09-20T01:21:38.151Z,46.53
2018-09-20T01:26:41.416Z,40.83
2018-09-20T01:31:44.675Z,51.10
2018-09-20T01:36:47.968Z,63.20
2018-09-20T01:41:51.259Z,65.93
2018-09-20T01:46:54.533Z,69.77
2018-09-20T01:51:57.795Z,69.63
2018-09-20T01:57:01.050Z,70.27
2018-09-20T02:02:04.328Z,69.33
2018-09-20T02:07:07.653Z,68.93
2018-09-20T02:12:10.912Z,69.77
2018-09-20T02:17:14.206Z,52.97
2018-09-20T02:22:17.535Z,63.90
2018-09-20T02:27:20.825Z,67.20
2018-09-20T02:32:24.102Z,72.47
2018-09-20T02:37:27.414Z,72.80
2018-09-20T02:42:30.708Z,63.17
2018-09-20T02:47:33.988Z,91.47
2018-09-20T02:52:37.330Z,70.40
2018-09-20T02:57:40.668Z,61.07
2018-09-20T03:02:43.937Z,49.20
2018-09-20T03:07:47.186Z,50.03
2018-09-20T03:12:50.470Z,47.73
2018-09-20T03:17:54.271Z,27.80
2018-09-20T03:22:57.546Z,42.90
2018-09-20T03:28:00.809Z,97.93
2018-09-20T03:33:04.237Z,90.47
2018-09-20T03:38:07.519Z,120.17
2018-09-20T03:43:10.792Z,103.60
2018-09-20T03:48:14.044Z,85.87
2018-09-20T03:53:17.588Z,84.10
2018-09-20T03:58:20.863Z,73.77
2018-09-20T04:03:24.148Z,80.03
2018-09-20T04:08:27.433Z,92.30
2018-09-20T04:13:30.697Z,45.80
2018-09-20T04:18:35.177Z,90.57
2018-09-20T04:23:38.574Z,61.27
2018-09-20T04:28:41.858Z,69.37
2018-09-20T04:33:45.144Z,48.27
2018-09-20T04:38:48.420Z,82.33
2018-09-20T04:43:51.428Z,64.03
2018-09-20T04:48:54.704Z,83.37
2018-09-20T04:53:58.012Z,102.03
2018-09-20T04:59:01.049Z,107.47
2018-09-20T05:04:04.328Z,76.87
2018-09-20T05:09:10.227Z,40.73
2018-09-20T05:14:13.500Z,47.30
2018-09-20T05:19:16.772Z,34.77
2018-09-20T05:24:20.041Z,41.80
2018-09-20T05:29:23.047Z,51.63
2018-09-20T05:34:26.320Z,48.07
2018-09-20T05:39:29.576Z,44.83
2018-09-20T05:44:33.340Z,34.00
2018-09-20T05:49:36.604Z,44.87
2018-09-20T05:54:39.860Z,51.97
2018-09-20T05:59:43.110Z,55.07
2018-09-20T06:04:46.371Z,49.33
2018-09-20T06:09:49.690Z,34.97
2018-09-20T06:14:53.001Z,78.20
2018-09-20T06:19:56.316Z,34.13
2018-09-20T06:24:59.593Z,48.13
2018-09-20T06:30:02.857Z,40.50
2018-09-20T06:35:06.372Z,38.17
2018-09-20T06:40:09.647Z,24.47
2018-09-20T06:45:13.055Z,57.63
2018-09-20T06:50:16.374Z,51.37
2018-09-20T06:55:19.684Z,47.97
2018-09-20T07:00:22.959Z,23.23
2018-09-20T07:05:26.261Z,24.63
2018-09-20T07:10:29.519Z,24.27
2018-09-20T07:15:32.801Z,30.53
2018-09-20T07:20:36.070Z,28.30
2018-09-20T07:25:39.372Z,20.10
2018-09-20T07:30:42.649Z,18.33
2018-09-20T07:35:45.935Z,23.17
2018-09-20T07:40:49.209Z,20.03
2018-09-20T07:45:52.794Z,18.60
2018-09-20T07:50:56.058Z,21.63
2018-09-20T07:55:59.338Z,19.33
2018-09-20T08:01:02.603Z,18.77
2018-09-20T08:06:06.830Z,17.20
2018-09-20T08:11:10.116Z,17.17
2018-09-20T08:16:13.389Z,18.27
2018-09-20T08:21:16.663Z,17.37
2018-09-20T08:26:19.978Z,16.30
2018-09-20T08:31:23.239Z,17.47
2018-09-20T08:36:26.594Z,17.50
2018-09-20T08:41:29.813Z,15.93
2018-09-20T08:46:39.749Z,15.37
2018-09-20T08:51:43.019Z,16.43
2018-09-20T08:56:46.339Z,21.23
2018-09-20T09:01:49.565Z,15.67
2018-09-20T09:06:52.886Z,15.13
2018-09-20T09:11:56.872Z,16.07
2018-09-20T09:17:00.139Z,15.40
2018-09-20T09:22:03.427Z,17.20
2018-09-20T09:27:06.728Z,15.33
2018-09-20T09:32:10.032Z,22.27
2018-09-20T09:37:13.312Z,13.73
2018-09-20T09:42:16.640Z,13.57
2018-09-20T09:47:19.855Z,14.97
2018-09-20T09:52:23.148Z,12.80
2018-09-20T09:57:26.430Z,12.30
2018-09-20T10:02:29.737Z,14.83
2018-09-20T10:07:32.962Z,14.47
2018-09-20T10:12:36.229Z,11.53
2018-09-20T10:17:39.521Z,10.70
2018-09-20T10:22:42.836Z,10.35
2018-09-20T10:27:46.102Z,10.72
2018-09-20T10:32:49.380Z,10.43
2018-09-20T10:37:52.666Z,11.08
2018-09-20T10:42:55.937Z,11.55
2018-09-20T10:47:59.235Z,9.95
2018-09-20T10:53:02.528Z,9.33
2018-09-20T10:58:05.806Z,9.75
2018-09-20T11:03:09.153Z,9.40
2018-09-20T11:08:12.347Z,11.63
2018-09-20T11:13:15.641Z,10.60
2018-09-20T11:18:18.970Z,10.90
2018-09-20T11:23:22.255Z,9.83
2018-09-20T11:28:25.575Z,9.70
2018-09-20T11:33:28.852Z,6.85
2018-09-20T11:38:32.132Z,11.00
2018-09-20T11:43:35.412Z,6.25
2018-09-20T11:48:38.725Z,6.97
2018-09-20T11:53:41.998Z,6.90
2018-09-20T11:58:45.278Z,5.47
2018-09-20T12:03:48.815Z,6.95
2018-09-20T12:08:52.086Z,5.05
2018-09-20T12:13:55.345Z,7.20
2018-09-20T12:18:58.598Z,7.03
2018-09-20T12:24:01.863Z,6.70
2018-09-20T12:29:11.987Z,6.80
2018-09-20T12:34:15.259Z,4.40
2018-09-20T12:39:18.535Z,5.60
2018-09-20T12:44:21.803Z,4.15
2018-09-20T12:49:25.084Z,5.72
2018-09-20T12:54:28.396Z,7.08
2018-09-20T12:59:31.637Z,9.23
2018-09-20T13:04:34.902Z,5.15
2018-09-20T13:09:38.179Z,5.58
2018-09-20T13:14:41.711Z,6.70
2018-09-20T13:19:44.983Z,6.45
2018-09-20T13:24:48.236Z,6.55
2018-09-20T13:29:51.505Z,5.45
2018-09-20T13:34:54.779Z,4.67
2018-09-20T13:39:58.110Z,4.53
2018-09-20T13:45:01.345Z,5.10
2018-09-20T13:50:04.708Z,4.20
2018-09-20T13:55:07.974Z,4.25
2018-09-20T14:00:12.404Z,4.95
2018-09-20T14:05:15.688Z,5.47
2018-09-20T14:10:18.978Z,5.60
2018-09-20T14:15:22.286Z,4.92
2018-09-20T14:20:26.008Z,5.45
2018-09-20T14:25:29.274Z,4.78
2018-09-20T14:30:32.578Z,7.67
2018-09-20T14:35:35.834Z,7.05
2018-09-20T14:40:39.846Z,6.08
2018-09-20T14:45:43.135Z,5.35
2018-09-20T14:50:46.391Z,4.05
2018-09-20T14:55:49.651Z,5.58
2018-09-20T15:00:52.894Z,5.65
2018-09-20T15:05:56.178Z,5.97
2018-09-20T15:10:59.821Z,6.72
2018-09-20T15:16:03.094Z,4.22
2018-09-20T15:21:06.415Z,5.60
2018-09-20T15:26:09.671Z,4.55
2018-09-20T15:31:12.937Z,4.28
2018-09-20T15:36:16.208Z,4.65
2018-09-20T15:41:19.475Z,6.25
2018-09-20T15:46:22.724Z,6.15
2018-09-20T15:51:27.448Z,6.75
2018-09-20T15:56:30.715Z,5.90
2018-09-20T16:01:35.666Z,5.67
2018-09-20T16:06:39.019Z,10.55
2018-09-20T16:11:42.376Z,6.12
2018-09-20T16:16:45.695Z,7.80
2018-09-20T16:21:49.005Z,5.30
2018-09-20T16:26:52.684Z,6.03
2018-09-20T16:36:17.495Z,8.40
2018-09-20T16:41:23.959Z,9.55
2018-09-20T16:46:27.217Z,10.35
2018-09-20T16:51:30.527Z,11.08
2018-09-20T16:56:33.805Z,8.23
2018-09-20T17:01:37.215Z,7.47
2018-09-20T17:06:40.530Z,6.90
2018-09-20T17:11:43.808Z,7.37
2018-09-20T17:17:18.109Z,7.47
2018-09-20T17:22:21.440Z,10.20
2018-09-20T17:27:25.183Z,7.50
2018-09-20T17:32:28.559Z,9.77
2018-09-20T17:37:32.502Z,7.73
2018-09-20T17:42:36.667Z,6.17
2018-09-20T17:47:40.293Z,8.43
2018-09-20T17:52:43.833Z,8.77
2018-09-20T17:57:47.472Z,11.17
2018-09-20T18:02:50.963Z,7.73
2018-09-20T18:07:54.588Z,9.40
2018-09-20T18:12:57.894Z,10.63
2018-09-20T18:18:01.254Z,11.53
2018-09-20T18:23:04.426Z,10.83
2018-09-20T18:28:08.230Z,10.23
2018-09-20T18:33:12.041Z,11.87
2018-09-20T18:38:16.218Z,13.50
2018-09-20T18:43:19.504Z,9.03
2018-09-20T18:48:22.829Z,11.20
2018-09-20T18:53:26.044Z,9.03
2018-09-20T18:58:30.340Z,8.57
2018-09-20T19:03:33.815Z,11.47
2018-09-20T19:08:37.066Z,11.40
2018-09-20T19:13:41.224Z,12.20
2018-09-20T19:18:44.530Z,12.13
2018-09-20T19:23:47.880Z,10.67
2018-09-20T19:28:52.015Z,11.70
2018-09-20T19:33:55.379Z,9.37
2018-09-20T19:38:58.664Z,11.57
2018-09-20T19:44:01.937Z,11.17
2018-09-20T19:49:05.294Z,14.53
2018-09-20T19:54:09.058Z,15.77
2018-09-20T19:59:12.811Z,14.90
2018-09-20T20:04:16.467Z,13.33
2018-09-20T20:09:19.736Z,18.07
2018-09-20T20:14:23.055Z,18.43
2018-09-20T20:19:26.367Z,13.57
2018-09-20T20:24:29.640Z,13.23
2018-09-20T20:29:33.251Z,15.73
2018-09-20T20:34:36.938Z,12.07
2018-09-20T20:39:40.225Z,14.50
2018-09-20T20:44:43.785Z,12.27
2018-09-20T20:49:47.048Z,15.30
2018-09-20T20:54:50.311Z,14.60
2018-09-20T20:59:54.261Z,13.97
2018-09-20T21:04:57.532Z,13.17
2018-09-20T21:10:00.798Z,14.17
2018-09-20T21:15:04.099Z,13.17
2018-09-20T21:20:08.075Z,14.63
2018-09-20T21:25:11.330Z,13.23
2018-09-20T21:30:14.323Z,15.77
2018-09-20T21:35:17.318Z,14.00
2018-09-20T21:40:21.630Z,15.77
2018-09-20T21:45:24.625Z,14.10
2018-09-20T21:50:27.888Z,14.17
2018-09-20T21:55:30.878Z,12.33
2018-09-20T22:00:33.857Z,13.90
2018-09-20T22:05:36.854Z,13.50
2018-09-20T22:10:40.099Z,14.47
2018-09-20T22:15:43.354Z,14.00
2018-09-20T22:20:46.620Z,17.03
2018-09-20T22:25:49.873Z,20.00
2018-09-20T22:30:52.884Z,17.50
2018-09-20T22:35:55.878Z,22.13
2018-09-20T22:40:59.164Z,24.13
2018-09-20T22:46:02.422Z,21.50
2018-09-20T22:51:05.764Z,21.23
2018-09-20T22:56:09.024Z,25.57
2018-09-20T23:01:16.566Z,23.40
2018-09-20T23:06:19.818Z,25.30
2018-09-20T23:11:23.058Z,24.83
2018-09-20T23:16:26.338Z,26.00
2018-09-20T23:21:29.598Z,25.37
2018-09-20T23:26:32.843Z,27.23
2018-09-20T23:31:36.101Z,25.47
2018-09-20T23:36:39.390Z,29.07
2018-09-20T23:41:42.654Z,27.33
2018-09-20T23:46:45.934Z,31.33
2018-09-20T23:51:49.267Z,34.00
2018-09-20T23:56:52.538Z,33.53
